Terminal Aerodrome Forecast
Issued by NWS

Home | Current Version | Previous Version | Text Only | Print | Product List | Glossary Off
Versions: 1 2 3 4 5 6 7 8 9 10 11 12 13 14 15 16 17 18

905
FTUS42 KMHX 292329
TAFPGV
TAF
KPGV 292329Z 3000/3024 16008KT P6SM SCT035 BKN070
     FM300400 12006KT P6SM VCSH SCT015 OVC025
     FM301000 VRB04KT P6SM OVC015
     FM301400 14006KT P6SM VCSH OVC040
      AMD LTD TO CLD VIS AND WIND=

USA.gov is the U.S. government's official web portal to all federal, state and local government web resources and services.